Time;durP1;ratioP1;P1;durP2;ratioP2;P2;SDS_P1;SDS_P2;PMS_P1;PMS_P2;Temp;Humidity;BMP_temperature;BMP_pressure;BME280_temperature;BME280_humidity;BME280_pressure;Samples;Min_cycle;Max_cycle;Signal;HPM_P1;HPM_P2
2021/12/10 00:01:53;;;;;;;33.58;19.75;;;;;;;;;;4959017;28;20130;-70
2021/12/10 00:04:20;;;;;;;39.47;19.77;;;;;;;;;;4971257;28;20094;-69
2021/12/10 00:06:48;;;;;;;39.97;20.75;;;;;;;;;;4972963;28;20116;-69
2021/12/10 00:09:17;;;;;;;37.53;20.42;;;;;;;;;;4967716;28;20395;-69
2021/12/10 00:11:49;;;;;;;34.63;18.33;;;;;;;;;;4966350;28;20101;-70
2021/12/10 00:14:15;;;;;;;33.28;19.13;;;;;;;;;;4970122;28;20046;-70
2021/12/10 00:16:42;;;;;;;39.45;18.27;;;;;;;;;;4966343;28;20084;-70
2021/12/10 00:19:20;;;;;;;24.73;16.60;;;;;;;;;;4971490;28;20445;-70
2021/12/10 00:21:47;;;;;;;33.35;18.40;;;;;;;;;;4964801;28;20051;-69
2021/12/10 00:24:13;;;;;;;29.92;17.63;;;;;;;;;;4963219;28;20539;-69
2021/12/10 00:26:39;;;;;;;29.67;16.27;;;;;;;;;;4953191;28;20074;-69
2021/12/10 00:29:07;;;;;;;35.90;17.10;;;;;;;;;;4970186;28;20047;-70
2021/12/10 00:34:12;;;;;;;35.35;17.85;;;;;;;;;;4968448;28;20075;-69
2021/12/10 00:36:38;;;;;;;36.00;17.58;;;;;;;;;;4952574;28;20484;-69
2021/12/10 00:39:06;;;;;;;32.65;16.92;;;;;;;;;;4967773;28;20399;-69
2021/12/10 00:41:32;;;;;;;36.47;16.75;;;;;;;;;;4968864;28;20039;-69
2021/12/10 00:43:58;;;;;;;34.85;17.02;;;;;;;;;;4971257;28;20038;-69
2021/12/10 00:46:24;;;;;;;29.33;16.63;;;;;;;;;;4969654;28;20046;-70
2021/12/10 00:48:51;;;;;;;29.42;15.75;;;;;;;;;;4961284;28;20051;-70
2021/12/10 00:51:17;;;;;;;38.15;16.75;;;;;;;;;;4971137;28;20043;-69
2021/12/10 00:53:43;;;;;;;30.80;16.05;;;;;;;;;;4955235;28;20490;-69
2021/12/10 00:56:09;;;;;;;32.08;16.08;;;;;;;;;;4971316;28;20121;-69
2021/12/10 00:58:36;;;;;;;25.27;14.75;;;;;;;;;;4970969;28;20054;-69
2021/12/10 01:01:05;;;;;;;28.75;15.07;;;;;;;;;;4969050;28;20078;-69
2021/12/10 01:03:35;;;;;;;22.95;13.73;;;;;;;;;;4970734;28;20043;-69
2021/12/10 01:06:03;;;;;;;28.40;14.20;;;;;;;;;;4964339;28;20125;-69
2021/12/10 01:08:31;;;;;;;27.20;13.43;;;;;;;;;;4969992;28;20042;-69
2021/12/10 01:11:06;;;;;;;31.20;14.60;;;;;;;;;;4969827;28;20109;-69
2021/12/10 01:13:35;;;;;;;27.42;13.15;;;;;;;;;;4974479;28;20058;-69
2021/12/10 01:23:41;;;;;;;33.40;12.77;;;;;;;;;;4969760;28;20047;-69
2021/12/10 01:27:02;;;;;;;26.80;12.15;;;;;;;;;;4969569;28;20042;-69
2021/12/10 01:29:30;;;;;;;25.90;11.48;;;;;;;;;;4971062;28;20627;-69
2021/12/10 01:31:57;;;;;;;24.60;12.85;;;;;;;;;;4971795;28;20046;-69
2021/12/10 01:34:24;;;;;;;23.55;13.50;;;;;;;;;;4969350;28;20035;-69
2021/12/10 01:36:50;;;;;;;24.13;12.60;;;;;;;;;;4986656;28;20035;-69
2021/12/10 01:39:18;;;;;;;28.85;14.07;;;;;;;;;;4971983;28;20059;-69
2021/12/10 01:41:53;;;;;;;27.63;14.13;;;;;;;;;;4971144;28;20054;-69
2021/12/10 01:44:27;;;;;;;25.80;13.73;;;;;;;;;;4973707;28;20474;-69
2021/12/10 01:46:54;;;;;;;25.67;14.45;;;;;;;;;;4973147;28;20450;-69
2021/12/10 01:49:20;;;;;;;28.27;14.10;;;;;;;;;;4970297;28;20039;-70
2021/12/10 01:51:46;;;;;;;23.30;14.65;;;;;;;;;;4972312;28;20456;-69
2021/12/10 01:54:20;;;;;;;24.65;13.68;;;;;;;;;;4973827;28;20638;-69
2021/12/10 01:56:46;;;;;;;25.00;14.55;;;;;;;;;;4972972;28;20051;-69
2021/12/10 01:59:14;;;;;;;29.77;15.68;;;;;;;;;;4973092;28;21454;-69
2021/12/10 02:01:42;;;;;;;30.27;14.38;;;;;;;;;;4970622;28;20042;-69
2021/12/10 02:04:10;;;;;;;24.13;14.25;;;;;;;;;;4972803;28;20041;-69
2021/12/10 02:06:38;;;;;;;28.83;13.77;;;;;;;;;;4970767;28;20045;-69
2021/12/10 02:09:05;;;;;;;24.20;13.95;;;;;;;;;;4972371;28;20101;-69
2021/12/10 02:11:31;;;;;;;28.02;14.13;;;;;;;;;;4973296;28;20122;-69
2021/12/10 02:13:57;;;;;;;24.10;13.63;;;;;;;;;;4973080;28;20043;-69
2021/12/10 02:16:23;;;;;;;21.88;13.07;;;;;;;;;;4957191;28;20050;-69
2021/12/10 02:18:49;;;;;;;24.35;12.82;;;;;;;;;;4969428;28;20050;-70
2021/12/10 02:21:17;;;;;;;20.85;12.23;;;;;;;;;;4973760;28;20368;-69
2021/12/10 02:23:46;;;;;;;24.45;13.48;;;;;;;;;;4968646;28;20050;-69
2021/12/10 02:26:13;;;;;;;22.05;12.60;;;;;;;;;;4967849;28;20121;-69
2021/12/10 02:28:40;;;;;;;22.55;13.00;;;;;;;;;;4973436;28;20039;-69
2021/12/10 02:31:08;;;;;;;19.83;11.65;;;;;;;;;;4973076;28;20051;-69
2021/12/10 02:33:34;;;;;;;20.77;12.25;;;;;;;;;;4972753;28;20125;-69
2021/12/10 02:36:00;;;;;;;23.27;13.15;;;;;;;;;;4971294;28;20075;-69
2021/12/10 02:38:27;;;;;;;38.15;13.60;;;;;;;;;;4938664;28;20055;-69
2021/12/10 02:40:54;;;;;;;18.05;11.80;;;;;;;;;;4949351;28;20439;-69
2021/12/10 02:43:21;;;;;;;21.65;12.13;;;;;;;;;;4966026;28;20122;-69
2021/12/10 02:45:48;;;;;;;18.77;11.05;;;;;;;;;;4972726;28;20442;-69
2021/12/10 02:48:15;;;;;;;20.58;11.20;;;;;;;;;;4973406;28;20054;-69
2021/12/10 02:50:43;;;;;;;17.27;11.60;;;;;;;;;;4969190;28;20074;-69
2021/12/10 02:53:10;;;;;;;25.30;12.10;;;;;;;;;;4972557;28;20039;-69
2021/12/10 02:55:36;;;;;;;24.33;10.93;;;;;;;;;;4971973;28;20055;-69
2021/12/10 02:58:05;;;;;;;21.15;12.07;;;;;;;;;;4972616;28;21552;-68
2021/12/10 03:00:33;;;;;;;20.55;11.38;;;;;;;;;;4972122;28;20050;-69
2021/12/10 03:02:59;;;;;;;22.95;11.77;;;;;;;;;;4965543;28;20078;-69
2021/12/10 03:05:25;;;;;;;23.90;10.80;;;;;;;;;;4971694;28;20039;-69
2021/12/10 03:07:52;;;;;;;19.98;11.40;;;;;;;;;;4967370;28;20081;-69
2021/12/10 03:10:20;;;;;;;19.50;10.85;;;;;;;;;;4969729;28;20058;-69
2021/12/10 03:12:47;;;;;;;18.20;10.98;;;;;;;;;;4969527;28;20039;-69
2021/12/10 03:15:13;;;;;;;18.63;10.85;;;;;;;;;;4970267;28;20058;-69
2021/12/10 03:17:41;;;;;;;19.00;10.75;;;;;;;;;;4970792;28;20489;-69
2021/12/10 03:20:10;;;;;;;21.42;10.25;;;;;;;;;;4968901;28;20074;-69
2021/12/10 03:22:37;;;;;;;21.58;10.45;;;;;;;;;;4966428;28;20039;-69
2021/12/10 03:25:05;;;;;;;18.13;10.07;;;;;;;;;;4953813;28;20043;-69
2021/12/10 03:27:31;;;;;;;19.77;9.82;;;;;;;;;;4968376;28;20101;-69
2021/12/10 03:29:57;;;;;;;16.33;10.75;;;;;;;;;;4971134;28;20050;-69
2021/12/10 03:32:28;;;;;;;14.75;10.75;;;;;;;;;;4948646;28;20446;-69
2021/12/10 03:34:56;;;;;;;18.23;10.35;;;;;;;;;;4965887;28;20092;-69
2021/12/10 03:37:22;;;;;;;15.02;9.88;;;;;;;;;;4966572;28;20042;-69
2021/12/10 03:39:49;;;;;;;15.20;9.82;;;;;;;;;;4967521;28;20079;-69
2021/12/10 03:42:16;;;;;;;18.80;10.85;;;;;;;;;;4969247;28;20501;-69
2021/12/10 03:44:42;;;;;;;22.35;10.82;;;;;;;;;;4968504;28;20181;-69
2021/12/10 03:47:09;;;;;;;16.58;9.63;;;;;;;;;;4970323;28;20035;-69
2021/12/10 03:49:36;;;;;;;16.75;8.98;;;;;;;;;;4969766;28;20050;-69
2021/12/10 03:52:03;;;;;;;16.20;10.27;;;;;;;;;;4969481;28;20057;-69
2021/12/10 03:54:30;;;;;;;21.50;10.77;;;;;;;;;;4970411;28;20047;-69
2021/12/10 03:56:56;;;;;;;16.00;11.13;;;;;;;;;;4969849;28;20074;-69
2021/12/10 03:59:23;;;;;;;19.83;10.18;;;;;;;;;;4969432;28;20454;-69
2021/12/10 04:01:52;;;;;;;19.25;11.27;;;;;;;;;;4970360;28;20136;-69
2021/12/10 04:04:20;;;;;;;17.73;10.70;;;;;;;;;;4968969;28;20062;-69
2021/12/10 04:06:46;;;;;;;17.48;10.38;;;;;;;;;;4968928;28;20061;-69
2021/12/10 04:09:12;;;;;;;20.15;11.13;;;;;;;;;;4968482;28;20049;-69
2021/12/10 04:11:38;;;;;;;18.50;11.02;;;;;;;;;;4970247;28;20105;-68
2021/12/10 04:14:05;;;;;;;21.25;11.32;;;;;;;;;;4970386;28;20138;-69
2021/12/10 04:16:32;;;;;;;24.38;11.48;;;;;;;;;;4968881;28;20061;-69
2021/12/10 04:18:59;;;;;;;16.65;10.15;;;;;;;;;;4969898;28;20047;-69
2021/12/10 04:21:26;;;;;;;24.00;11.55;;;;;;;;;;4969917;28;20043;-69
2021/12/10 04:23:52;;;;;;;20.60;11.15;;;;;;;;;;4970496;28;20563;-68
2021/12/10 04:26:20;;;;;;;24.55;10.55;;;;;;;;;;4968212;28;20046;-69
2021/12/10 04:28:46;;;;;;;20.05;10.57;;;;;;;;;;4966900;28;20093;-69
2021/12/10 04:31:13;;;;;;;23.90;11.32;;;;;;;;;;4967574;28;20479;-69
2021/12/10 04:33:39;;;;;;;19.80;11.65;;;;;;;;;;4968703;28;20046;-69
2021/12/10 04:36:07;;;;;;;21.20;11.43;;;;;;;;;;4968965;28;20108;-69
2021/12/10 04:38:33;;;;;;;18.48;10.95;;;;;;;;;;4966659;28;20082;-69
2021/12/10 04:41:02;;;;;;;17.38;10.85;;;;;;;;;;4970364;28;20046;-69
2021/12/10 04:43:29;;;;;;;20.85;11.65;;;;;;;;;;4968295;28;20055;-69
2021/12/10 04:45:57;;;;;;;21.92;11.73;;;;;;;;;;4971044;28;20046;-69
2021/12/10 04:48:23;;;;;;;18.92;12.15;;;;;;;;;;4973824;28;20103;-69
2021/12/10 04:50:49;;;;;;;22.50;12.95;;;;;;;;;;4974146;28;20039;-69
2021/12/10 04:53:15;;;;;;;22.67;12.85;;;;;;;;;;4974743;28;20070;-69
2021/12/10 04:55:42;;;;;;;28.25;13.70;;;;;;;;;;4974655;28;20487;-69
2021/12/10 04:58:08;;;;;;;19.70;12.30;;;;;;;;;;4970150;28;20035;-69
2021/12/10 05:00:37;;;;;;;19.38;12.27;;;;;;;;;;4975475;28;20043;-69
2021/12/10 05:03:05;;;;;;;22.65;12.98;;;;;;;;;;4974045;28;20059;-69
2021/12/10 05:05:31;;;;;;;23.33;13.48;;;;;;;;;;4970734;28;20057;-69
2021/12/10 05:07:57;;;;;;;19.15;12.75;;;;;;;;;;4974081;28;20050;-69
2021/12/10 05:10:23;;;;;;;23.38;13.02;;;;;;;;;;4970596;28;20509;-69
2021/12/10 05:12:49;;;;;;;26.48;13.32;;;;;;;;;;4970604;28;20046;-69
2021/12/10 05:15:21;;;;;;;23.05;12.77;;;;;;;;;;4970050;28;20137;-69
2021/12/10 05:17:49;;;;;;;20.55;12.30;;;;;;;;;;4971020;28;20050;-69
2021/12/10 05:20:17;;;;;;;22.50;12.75;;;;;;;;;;4974362;28;20474;-69
2021/12/10 05:22:44;;;;;;;21.95;13.07;;;;;;;;;;4969699;28;20506;-69
2021/12/10 05:25:11;;;;;;;20.63;12.57;;;;;;;;;;4973284;28;20426;-69
2021/12/10 05:27:37;;;;;;;19.05;12.52;;;;;;;;;;4969176;28;20046;-69
2021/12/10 05:30:05;;;;;;;20.83;12.93;;;;;;;;;;4973301;28;20589;-69
2021/12/10 05:32:31;;;;;;;22.77;12.88;;;;;;;;;;4973873;28;20046;-69
2021/12/10 05:34:57;;;;;;;20.02;13.77;;;;;;;;;;4970014;28;20043;-69
2021/12/10 05:37:24;;;;;;;21.75;12.95;;;;;;;;;;4973286;28;20085;-69
2021/12/10 05:39:50;;;;;;;23.42;13.60;;;;;;;;;;4961014;28;20407;-69
2021/12/10 05:42:16;;;;;;;21.23;13.18;;;;;;;;;;4971851;28;20682;-69
2021/12/10 05:44:42;;;;;;;24.92;13.32;;;;;;;;;;4958192;28;20449;-69
2021/12/10 05:47:08;;;;;;;19.23;12.60;;;;;;;;;;4960074;28;20040;-69
2021/12/10 05:49:35;;;;;;;16.58;10.18;;;;;;;;;;4966321;28;20082;-69
2021/12/10 05:52:01;;;;;;;18.30;12.15;;;;;;;;;;4969271;28;20070;-69
2021/12/10 05:54:27;;;;;;;19.25;11.95;;;;;;;;;;4969823;28;20039;-69
2021/12/10 05:56:53;;;;;;;17.77;11.05;;;;;;;;;;4964465;28;20035;-69
2021/12/10 05:59:19;;;;;;;20.95;11.32;;;;;;;;;;4949243;28;20035;-69
2021/12/10 06:01:45;;;;;;;20.50;12.57;;;;;;;;;;4963860;28;20043;-69
2021/12/10 06:04:12;;;;;;;22.23;12.50;;;;;;;;;;4969435;28;20058;-69
2021/12/10 06:06:40;;;;;;;18.42;11.90;;;;;;;;;;4961586;28;20045;-69
2021/12/10 06:09:07;;;;;;;21.73;12.32;;;;;;;;;;4970422;28;20050;-69
2021/12/10 06:11:33;;;;;;;19.10;11.88;;;;;;;;;;4971974;28;20471;-69
2021/12/10 06:13:59;;;;;;;17.63;11.65;;;;;;;;;;4973092;28;20491;-69
2021/12/10 06:16:26;;;;;;;21.45;10.63;;;;;;;;;;4967473;28;20392;-69
2021/12/10 06:18:52;;;;;;;19.30;11.35;;;;;;;;;;4969778;28;20074;-69
2021/12/10 06:21:18;;;;;;;18.42;11.20;;;;;;;;;;4963342;28;20476;-68
2021/12/10 06:23:45;;;;;;;17.58;10.82;;;;;;;;;;4969502;28;20042;-69
2021/12/10 06:26:11;;;;;;;17.85;11.98;;;;;;;;;;4986797;28;20129;-69
2021/12/10 06:28:37;;;;;;;17.02;10.20;;;;;;;;;;4972261;28;20050;-69
2021/12/10 06:31:03;;;;;;;18.52;11.43;;;;;;;;;;4954969;28;20057;-69
2021/12/10 06:33:31;;;;;;;16.25;10.65;;;;;;;;;;4971172;28;21020;-69
2021/12/10 06:36:00;;;;;;;16.80;11.15;;;;;;;;;;4971524;28;20089;-69
2021/12/10 06:38:27;;;;;;;15.90;10.80;;;;;;;;;;4971535;28;20525;-69
2021/12/10 06:40:53;;;;;;;18.67;11.00;;;;;;;;;;4987674;28;20486;-69
2021/12/10 06:43:21;;;;;;;18.90;11.70;;;;;;;;;;4961455;28;20036;-69
2021/12/10 06:45:47;;;;;;;15.55;10.23;;;;;;;;;;4971267;28;20055;-69
2021/12/10 06:48:14;;;;;;;17.52;11.20;;;;;;;;;;4972011;28;20047;-69
2021/12/10 06:50:42;;;;;;;20.20;11.70;;;;;;;;;;4969917;28;20085;-69
2021/12/10 06:53:08;;;;;;;13.85;9.35;;;;;;;;;;4967051;28;20047;-69
2021/12/10 06:55:35;;;;;;;18.98;10.07;;;;;;;;;;4966901;28;20042;-69
2021/12/10 06:58:01;;;;;;;15.63;10.30;;;;;;;;;;4973069;28;20451;-69
2021/12/10 07:00:30;;;;;;;19.80;11.02;;;;;;;;;;4971506;28;20402;-69
2021/12/10 07:02:56;;;;;;;21.08;10.82;;;;;;;;;;4967494;28;20394;-69
2021/12/10 07:05:22;;;;;;;20.60;10.85;;;;;;;;;;4969483;28;20046;-69
2021/12/10 07:07:49;;;;;;;16.48;9.25;;;;;;;;;;4971408;28;20050;-69
2021/12/10 07:10:16;;;;;;;14.43;9.25;;;;;;;;;;4968948;28;20137;-70
2021/12/10 07:12:42;;;;;;;16.67;9.85;;;;;;;;;;4967929;28;20665;-69
2021/12/10 07:15:10;;;;;;;16.63;9.77;;;;;;;;;;4968841;28;20125;-69
2021/12/10 07:17:38;;;;;;;18.00;9.73;;;;;;;;;;4968074;28;20055;-69
2021/12/10 07:20:05;;;;;;;17.92;9.85;;;;;;;;;;4969333;28;20053;-70
2021/12/10 07:22:31;;;;;;;14.88;9.48;;;;;;;;;;4969090;28;20561;-69
2021/12/10 07:24:57;;;;;;;16.70;8.90;;;;;;;;;;4967943;28;20046;-69
2021/12/10 07:27:23;;;;;;;13.43;8.35;;;;;;;;;;4967820;28;20117;-69
2021/12/10 07:29:49;;;;;;;13.43;8.27;;;;;;;;;;4947588;28;20053;-69
2021/12/10 07:32:15;;;;;;;12.20;8.10;;;;;;;;;;4970471;28;20042;-70
2021/12/10 07:34:42;;;;;;;15.07;8.95;;;;;;;;;;4970496;28;20113;-69
2021/12/10 07:37:10;;;;;;;16.30;8.77;;;;;;;;;;4969010;28;20051;-69
2021/12/10 07:39:37;;;;;;;12.85;8.35;;;;;;;;;;4970398;28;20050;-69
2021/12/10 07:42:03;;;;;;;14.82;7.90;;;;;;;;;;4965070;28;20042;-70
2021/12/10 07:44:29;;;;;;;15.80;8.70;;;;;;;;;;4948500;28;20498;-69
2021/12/10 07:46:55;;;;;;;15.93;8.65;;;;;;;;;;4948368;28;20043;-69
2021/12/10 07:49:28;;;;;;;14.45;7.75;;;;;;;;;;4961449;28;20043;-70
2021/12/10 07:51:55;;;;;;;16.98;8.25;;;;;;;;;;4971849;28;20113;-69
2021/12/10 07:54:22;;;;;;;13.07;7.70;;;;;;;;;;4967379;28;20051;-69
2021/12/10 07:56:48;;;;;;;15.32;7.47;;;;;;;;;;4968166;28;20399;-69
2021/12/10 07:59:14;;;;;;;15.32;7.63;;;;;;;;;;4967663;28;20045;-70
2021/12/10 08:01:41;;;;;;;21.92;7.97;;;;;;;;;;4970034;28;20046;-69
2021/12/10 08:04:07;;;;;;;16.17;7.63;;;;;;;;;;4987324;28;20038;-69
2021/12/10 08:06:34;;;;;;;10.80;6.88;;;;;;;;;;4963279;28;20046;-69
2021/12/10 08:09:00;;;;;;;12.68;6.82;;;;;;;;;;4971314;28;20513;-69
2021/12/10 08:11:27;;;;;;;14.98;7.45;;;;;;;;;;4968487;28;20035;-69
2021/12/10 08:13:53;;;;;;;11.82;6.72;;;;;;;;;;4971170;28;20081;-69
2021/12/10 08:16:22;;;;;;;12.07;6.63;;;;;;;;;;4966057;28;20038;-69
2021/12/10 08:18:48;;;;;;;15.68;6.60;;;;;;;;;;4985956;28;20515;-69
2021/12/10 08:21:14;;;;;;;13.15;6.45;;;;;;;;;;4968930;28;20376;-69
2021/12/10 08:23:40;;;;;;;9.88;6.15;;;;;;;;;;4970489;28;20043;-70
2021/12/10 08:26:07;;;;;;;11.18;6.85;;;;;;;;;;4964808;28;20050;-70
2021/12/10 08:28:34;;;;;;;13.43;6.50;;;;;;;;;;4963059;28;20610;-68
2021/12/10 08:31:01;;;;;;;15.43;6.22;;;;;;;;;;4936433;28;20046;-69
2021/12/10 08:33:27;;;;;;;13.10;6.65;;;;;;;;;;4957434;28;20057;-69
2021/12/10 08:35:58;;;;;;;13.98;6.82;;;;;;;;;;4941111;28;20125;-70
2021/12/10 08:38:25;;;;;;;13.77;6.60;;;;;;;;;;4955208;28;20051;-69
2021/12/10 08:40:56;;;;;;;11.55;6.40;;;;;;;;;;4951252;28;20051;-69
2021/12/10 08:43:22;;;;;;;15.82;6.65;;;;;;;;;;4956342;28;21136;-69
2021/12/10 08:45:51;;;;;;;9.27;6.57;;;;;;;;;;4955351;28;20070;-69
2021/12/10 08:48:17;;;;;;;9.80;5.82;;;;;;;;;;4950667;28;20101;-69
2021/12/10 08:50:43;;;;;;;14.63;6.60;;;;;;;;;;4957432;28;20042;-69
2021/12/10 08:53:13;;;;;;;12.13;6.43;;;;;;;;;;4952126;28;20039;-69
2021/12/10 08:55:39;;;;;;;13.15;7.63;;;;;;;;;;4936070;28;20136;-72
2021/12/10 08:58:06;;;;;;;11.68;6.70;;;;;;;;;;4950737;28;20170;-70
2021/12/10 09:00:32;;;;;;;13.73;6.70;;;;;;;;;;4953363;28;20042;-70
2021/12/10 09:02:58;;;;;;;11.75;6.60;;;;;;;;;;4960083;28;20054;-69
2021/12/10 09:05:25;;;;;;;11.23;6.15;;;;;;;;;;4954559;28;20113;-69
2021/12/10 09:07:51;;;;;;;16.95;6.70;;;;;;;;;;4957752;28;20126;-68
2021/12/10 09:10:20;;;;;;;14.50;6.68;;;;;;;;;;4948341;28;20344;-68
2021/12/10 09:12:47;;;;;;;12.50;6.93;;;;;;;;;;4955225;28;20134;-69
2021/12/10 09:15:18;;;;;;;10.43;6.38;;;;;;;;;;4959074;28;20379;-68
2021/12/10 09:17:45;;;;;;;14.50;6.43;;;;;;;;;;4951894;28;20062;-69
2021/12/10 09:20:15;;;;;;;14.07;6.32;;;;;;;;;;4951640;28;20072;-68
2021/12/10 09:22:42;;;;;;;10.80;6.55;;;;;;;;;;4957409;28;20047;-68
2021/12/10 09:25:08;;;;;;;12.05;6.18;;;;;;;;;;4960779;28;20043;-67
2021/12/10 09:27:34;;;;;;;14.63;6.90;;;;;;;;;;4954822;28;20051;-68
2021/12/10 09:30:00;;;;;;;9.00;5.78;;;;;;;;;;4957914;28;20467;-68
2021/12/10 09:32:27;;;;;;;12.15;5.80;;;;;;;;;;4952436;28;20043;-68
2021/12/10 09:34:54;;;;;;;10.55;6.28;;;;;;;;;;4962296;28;20081;-67
2021/12/10 09:37:22;;;;;;;10.27;6.35;;;;;;;;;;4958849;28;20117;-69
2021/12/10 09:39:49;;;;;;;9.68;5.93;;;;;;;;;;4960718;28;20102;-69
2021/12/10 09:42:16;;;;;;;11.38;6.00;;;;;;;;;;4953487;28;20157;-69
2021/12/10 09:44:42;;;;;;;11.80;5.80;;;;;;;;;;4961483;28;20066;-69
2021/12/10 09:47:14;;;;;;;9.85;5.88;;;;;;;;;;4957541;28;20050;-69
2021/12/10 09:49:41;;;;;;;10.85;5.68;;;;;;;;;;4955124;28;20388;-69
2021/12/10 09:52:08;;;;;;;10.93;5.72;;;;;;;;;;4962079;28;20040;-69
2021/12/10 09:54:35;;;;;;;12.38;5.65;;;;;;;;;;4955655;28;20035;-70
2021/12/10 09:57:09;;;;;;;10.23;5.28;;;;;;;;;;4946274;28;20046;-70
2021/12/10 09:59:35;;;;;;;10.68;5.88;;;;;;;;;;4956755;28;20129;-70
2021/12/10 10:02:02;;;;;;;12.35;6.00;;;;;;;;;;4963693;28;20074;-70
2021/12/10 10:04:33;;;;;;;12.55;5.90;;;;;;;;;;4924828;28;20551;-69
2021/12/10 10:07:01;;;;;;;11.55;5.38;;;;;;;;;;4953994;28;20054;-70
2021/12/10 10:09:28;;;;;;;9.52;5.53;;;;;;;;;;4960078;28;20035;-70
2021/12/10 10:11:57;;;;;;;9.48;5.60;;;;;;;;;;4961089;28;20047;-69
2021/12/10 10:14:23;;;;;;;11.82;5.30;;;;;;;;;;4962120;28;20051;-69
2021/12/10 10:16:50;;;;;;;12.13;5.25;;;;;;;;;;4953180;28;20093;-69
2021/12/10 10:19:17;;;;;;;12.40;5.40;;;;;;;;;;4959287;28;20039;-69
2021/12/10 10:21:45;;;;;;;9.15;4.63;;;;;;;;;;4965554;28;20097;-68
2021/12/10 10:24:12;;;;;;;9.98;5.10;;;;;;;;;;4966780;28;20078;-69
2021/12/10 10:26:46;;;;;;;7.57;4.22;;;;;;;;;;4959457;28;20110;-69
2021/12/10 10:29:14;;;;;;;10.18;4.72;;;;;;;;;;4958300;28;20547;-69
2021/12/10 10:31:46;;;;;;;11.20;4.47;;;;;;;;;;4957061;28;20049;-69
2021/12/10 10:34:12;;;;;;;10.68;4.00;;;;;;;;;;4955460;28;20116;-69
2021/12/10 10:36:38;;;;;;;9.85;3.90;;;;;;;;;;4953152;28;20137;-69
2021/12/10 10:39:10;;;;;;;9.70;4.30;;;;;;;;;;4953382;28;20071;-69
2021/12/10 10:41:37;;;;;;;9.35;3.85;;;;;;;;;;4953285;28;20059;-69
2021/12/10 10:44:03;;;;;;;11.70;4.18;;;;;;;;;;4952568;28;20051;-69
2021/12/10 10:46:30;;;;;;;9.73;4.45;;;;;;;;;;4955129;28;20153;-69
2021/12/10 10:48:56;;;;;;;7.63;4.30;;;;;;;;;;4926967;28;20150;-69
2021/12/10 10:51:30;;;;;;;6.15;3.72;;;;;;;;;;4955268;28;20136;-69
2021/12/10 10:53:57;;;;;;;11.55;4.13;;;;;;;;;;4958912;28;20483;-69
2021/12/10 10:56:29;;;;;;;9.02;4.53;;;;;;;;;;4954277;28;20554;-69
2021/12/10 10:58:58;;;;;;;7.38;3.90;;;;;;;;;;4953855;28;20059;-69
2021/12/10 11:01:28;;;;;;;9.65;4.10;;;;;;;;;;4952487;28;20054;-69
2021/12/10 11:04:01;;;;;;;7.00;4.07;;;;;;;;;;4956475;28;20049;-68
2021/12/10 11:06:36;;;;;;;7.53;3.80;;;;;;;;;;4952153;28;20058;-69
2021/12/10 11:09:20;;;;;;;9.38;3.80;;;;;;;;;;4954433;28;20376;-69
2021/12/10 11:11:57;;;;;;;8.02;3.63;;;;;;;;;;4965193;28;20046;-70
2021/12/10 11:14:26;;;;;;;8.85;3.60;;;;;;;;;;4963011;28;20058;-69
2021/12/10 11:16:54;;;;;;;8.63;3.60;;;;;;;;;;4965164;28;20051;-69
2021/12/10 11:19:22;;;;;;;6.93;3.47;;;;;;;;;;4962766;28;20054;-69
2021/12/10 11:21:59;;;;;;;7.40;3.97;;;;;;;;;;4953884;28;20047;-69
2021/12/10 11:24:45;;;;;;;9.23;3.50;;;;;;;;;;4962394;28;20062;-69
2021/12/10 11:27:17;;;;;;;7.50;3.53;;;;;;;;;;4958115;28;20047;-69
2021/12/10 11:29:48;;;;;;;5.20;3.30;;;;;;;;;;4952177;28;20138;-69
2021/12/10 11:32:19;;;;;;;7.45;3.33;;;;;;;;;;4965264;28;20049;-69
2021/12/10 11:34:49;;;;;;;10.40;3.80;;;;;;;;;;4952058;28;20118;-69
2021/12/10 11:37:18;;;;;;;9.00;3.33;;;;;;;;;;4950906;28;20095;-70
2021/12/10 11:39:50;;;;;;;10.10;3.50;;;;;;;;;;4956168;28;20055;-69
2021/12/10 11:42:33;;;;;;;8.15;3.28;;;;;;;;;;4953812;28;20054;-69
2021/12/10 11:45:17;;;;;;;6.55;3.80;;;;;;;;;;4954120;28;20055;-69
2021/12/10 11:47:51;;;;;;;6.45;3.47;;;;;;;;;;4961403;28;20093;-68
2021/12/10 11:50:22;;;;;;;8.52;3.55;;;;;;;;;;4956733;28;20431;-68
2021/12/10 11:53:06;;;;;;;5.38;3.15;;;;;;;;;;4957857;28;20062;-68
2021/12/10 11:55:33;;;;;;;8.77;3.85;;;;;;;;;;4955116;28;20058;-68
2021/12/10 11:57:59;;;;;;;8.80;3.42;;;;;;;;;;4957917;28;20126;-68
2021/12/10 12:00:31;;;;;;;5.60;3.30;;;;;;;;;;4944384;28;20059;-69
2021/12/10 12:02:59;;;;;;;8.50;3.17;;;;;;;;;;4960944;28;20125;-61
2021/12/10 12:05:29;;;;;;;7.85;3.38;;;;;;;;;;4959739;28;20426;-69
2021/12/10 12:07:58;;;;;;;7.65;3.17;;;;;;;;;;4941933;28;20094;-68
2021/12/10 12:10:31;;;;;;;7.25;3.17;;;;;;;;;;4950833;28;20047;-68
2021/12/10 12:12:59;;;;;;;9.55;3.05;;;;;;;;;;4966581;28;20049;-68
2021/12/10 12:15:31;;;;;;;5.78;2.92;;;;;;;;;;4955969;28;20098;-68
2021/12/10 12:17:57;;;;;;;7.68;3.17;;;;;;;;;;4959433;28;20503;-69
2021/12/10 12:20:26;;;;;;;8.50;3.63;;;;;;;;;;4955723;28;20050;-68
2021/12/10 12:25:46;;;;;;;8.00;3.00;;;;;;;;;;4956815;28;20051;-68
2021/12/10 12:28:13;;;;;;;7.13;2.88;;;;;;;;;;4954336;28;20399;-68
2021/12/10 12:30:54;;;;;;;7.22;3.95;;;;;;;;;;4956382;28;20050;-68
2021/12/10 12:33:20;;;;;;;6.43;3.15;;;;;;;;;;4950410;28;20492;-68
2021/12/10 12:35:48;;;;;;;6.95;2.83;;;;;;;;;;4953799;28;20043;-68
2021/12/10 12:38:16;;;;;;;11.10;3.20;;;;;;;;;;4956280;28;20094;-68
2021/12/10 12:40:44;;;;;;;7.40;3.10;;;;;;;;;;4954328;28;20406;-68
2021/12/10 12:43:10;;;;;;;9.43;3.53;;;;;;;;;;4958050;28;20038;-68
2021/12/10 12:45:37;;;;;;;8.27;3.15;;;;;;;;;;4938429;28;20050;-67
2021/12/10 12:48:04;;;;;;;7.68;2.78;;;;;;;;;;4953273;28;20051;-68
2021/12/10 12:50:32;;;;;;;6.47;2.95;;;;;;;;;;4956730;28;20122;-68
2021/12/10 12:53:00;;;;;;;10.15;3.72;;;;;;;;;;4960996;28;20047;-68
2021/12/10 12:55:29;;;;;;;6.93;3.00;;;;;;;;;;4955203;28;20085;-68
2021/12/10 12:58:11;;;;;;;5.00;2.70;;;;;;;;;;4958266;28;20175;-68
2021/12/10 13:00:43;;;;;;;10.43;2.90;;;;;;;;;;4953625;28;20050;-69
2021/12/10 13:03:15;;;;;;;7.53;3.40;;;;;;;;;;4951839;28;20400;-69
2021/12/10 13:05:53;;;;;;;6.22;2.92;;;;;;;;;;4951886;28;20058;-69
2021/12/10 13:08:28;;;;;;;8.93;2.85;;;;;;;;;;4956143;28;20495;-69
2021/12/10 13:11:03;;;;;;;7.57;3.17;;;;;;;;;;4962572;28;20046;-68
2021/12/10 13:13:40;;;;;;;9.00;2.92;;;;;;;;;;4983900;28;20499;-68
2021/12/10 13:16:08;;;;;;;5.40;2.70;;;;;;;;;;4962863;28;20075;-69
2021/12/10 13:18:37;;;;;;;6.90;2.70;;;;;;;;;;4945122;28;20105;-68
2021/12/10 13:21:04;;;;;;;9.05;2.88;;;;;;;;;;4958063;28;20094;-70
2021/12/10 13:23:30;;;;;;;7.60;3.00;;;;;;;;;;4949165;28;20047;-71
2021/12/10 13:25:58;;;;;;;4.75;2.90;;;;;;;;;;4964957;28;20117;-70
2021/12/10 13:28:24;;;;;;;5.90;2.67;;;;;;;;;;4956366;28;20043;-70
2021/12/10 13:30:52;;;;;;;5.68;3.30;;;;;;;;;;4966286;28;20075;-70
2021/12/10 13:33:21;;;;;;;6.40;2.75;;;;;;;;;;4964756;28;20395;-70
2021/12/10 13:35:47;;;;;;;6.07;2.90;;;;;;;;;;4955458;28;20598;-71
2021/12/10 13:38:14;;;;;;;5.95;2.75;;;;;;;;;;4958775;28;20403;-69
2021/12/10 13:40:42;;;;;;;7.28;2.97;;;;;;;;;;4959454;28;20043;-70
2021/12/10 13:43:11;;;;;;;6.97;3.00;;;;;;;;;;4950864;28;20046;-70
2021/12/10 13:45:41;;;;;;;9.70;3.00;;;;;;;;;;4955440;28;20059;-70
2021/12/10 13:48:13;;;;;;;9.15;2.97;;;;;;;;;;4957353;28;20042;-70
2021/12/10 13:50:44;;;;;;;5.80;3.00;;;;;;;;;;4927279;28;20411;-70
2021/12/10 13:53:18;;;;;;;9.40;3.25;;;;;;;;;;4959736;28;20039;-68
2021/12/10 13:55:50;;;;;;;7.75;3.17;;;;;;;;;;4958544;28;20043;-68
2021/12/10 13:58:16;;;;;;;7.32;2.90;;;;;;;;;;4962190;28;20450;-69
2021/12/10 14:00:45;;;;;;;11.38;2.90;;;;;;;;;;4944324;28;20105;-68
2021/12/10 14:03:11;;;;;;;8.07;3.00;;;;;;;;;;4955675;28;20153;-68
2021/12/10 14:05:39;;;;;;;7.40;3.05;;;;;;;;;;4955725;28;20046;-68
2021/12/10 14:08:09;;;;;;;7.63;3.15;;;;;;;;;;4957121;28;20479;-68
2021/12/10 14:10:39;;;;;;;6.00;3.08;;;;;;;;;;4952233;28;20118;-68
2021/12/10 14:13:08;;;;;;;8.27;2.63;;;;;;;;;;4955696;28;20047;-70
2021/12/10 14:15:53;;;;;;;8.07;2.67;;;;;;;;;;4962997;28;20046;-68
2021/12/10 14:18:24;;;;;;;8.98;2.78;;;;;;;;;;4958856;28;20354;-69
2021/12/10 14:21:01;;;;;;;4.07;2.58;;;;;;;;;;4960770;28;20050;-69
2021/12/10 14:23:35;;;;;;;10.27;3.40;;;;;;;;;;4963556;28;20058;-69
2021/12/10 14:26:21;;;;;;;6.60;2.83;;;;;;;;;;4960551;28;20461;-69
2021/12/10 14:28:49;;;;;;;5.20;3.00;;;;;;;;;;4960852;28;20051;-68
2021/12/10 14:31:17;;;;;;;8.43;2.97;;;;;;;;;;4957594;28;20054;-69
2021/12/10 14:33:43;;;;;;;6.95;2.95;;;;;;;;;;4952502;28;20055;-69
2021/12/10 14:36:18;;;;;;;7.10;3.05;;;;;;;;;;4954157;28;20068;-69
2021/12/10 14:38:57;;;;;;;6.35;2.90;;;;;;;;;;4946558;28;20151;-69
2021/12/10 14:41:25;;;;;;;4.82;2.80;;;;;;;;;;4962326;28;20055;-68
2021/12/10 14:43:53;;;;;;;8.50;2.92;;;;;;;;;;4958064;28;20049;-68
2021/12/10 14:46:22;;;;;;;9.18;2.72;;;;;;;;;;4959308;28;20051;-68
2021/12/10 14:49:19;;;;;;;10.57;3.30;;;;;;;;;;4963369;28;20035;-67